»·PEaware :: N143VT KASE-KDEN

N143VT :: KASE-KDEN

FLIGHT INFORMATION

Flight Status: Arrived
Operator: Privately registered:
United States
More flights under this callsign
Pilot: Anonymous 16492 (16492)
Aircraft: ECLIPSE 500
(EA50)
More flights by this aircraft type
Origin: KASE Aspen-Pitkin Co/Sardy
United States
Destination: KDEN Denver Intl
United States
More flights between these airports :: More routes between these airports
Route: +LINDZ9 DBL JNETT TELLR2
File this flight plan on PilotEdge
Remarks:
Altitude:
(Current/Filed)
20,000ft
Speed:
(Current/Filed)
350kts
Departed: 31-Jul-18 05:36 PM
Arrived: 31-Jul-18 06:15 PM
Distance/Time
Traveled:
108nm/0:38
Distance/Time
To Go:
Arrived

Flight Plot

Page will automatically refresh every two minutes.

Flight plan parsing failed; only flown route is shown


Map Options




Map Legend


Flown Route
Filed Route
Departure Airport
Arrival Airport
Navaid (VOR, NDB)
Fix

Horizontal Profiles

Position Reports

Time Latitude Longitude Heading Altitude Ground
Speed
31-Jul-18 17:23 39.221560 -106.865798 255 7839ft 0kts
31-Jul-18 17:24 39.221560 -106.865798 255 7839ft 0kts
31-Jul-18 17:25 39.221560 -106.865798 255 7839ft 0kts
31-Jul-18 17:26 39.221560 -106.865798 255 7839ft 0kts
31-Jul-18 17:27 39.221560 -106.865798 255 7839ft 0kts
31-Jul-18 17:28 39.221560 -106.865798 255 7839ft 0kts
31-Jul-18 17:29 39.221560 -106.865798 255 7839ft 0kts
31-Jul-18 17:30 39.221560 -106.865798 255 7839ft 0kts
31-Jul-18 17:31 39.221560 -106.865798 255 7839ft 0kts
31-Jul-18 17:32 39.221540 -106.865898 256 7839ft 0kts
31-Jul-18 17:33 39.221127 -106.866589 201 7839ft 10kts
31-Jul-18 17:34 39.214959 -106.863692 157 7839ft 25kts
31-Jul-18 17:35 39.212191 -106.862497 188 7839ft 0kts
31-Jul-18 17:36 39.212065 -106.862540 204 7839ft 4kts
31-Jul-18 17:37 39.217813 -106.866430 340 7839ft 85kts
31-Jul-18 17:38 39.255453 -106.876160 351 8639ft 182kts
31-Jul-18 17:39 39.283690 -106.914860 281 11020ft 176kts
31-Jul-18 17:40 39.291393 -106.976986 281 13034ft 182kts
31-Jul-18 17:41 39.302648 -107.039601 317 14544ft 179kts
31-Jul-18 17:42 39.338232 -107.084317 316 15794ft 181kts
31-Jul-18 17:43 39.371867 -107.133086 313 16985ft 184kts
31-Jul-18 17:44 39.403760 -107.109828 75 18017ft 205kts
31-Jul-18 17:45 39.414068 -107.039358 72 19022ft 208kts
31-Jul-18 17:46 39.426695 -106.965942 70 20294ft 212kts
31-Jul-18 17:47 39.436388 -106.888495 98 20990ft 252kts
31-Jul-18 17:48 39.417442 -106.791706 100 20988ft 301kts
31-Jul-18 17:49 39.394844 -106.681855 101 21052ft 330kts
31-Jul-18 17:50 39.370315 -106.564824 101 21149ft 346kts
31-Jul-18 17:51 39.341230 -106.444497 106 21186ft 359kts
31-Jul-18 17:52 39.306199 -106.324656 108 21184ft 366kts
31-Jul-18 17:53 39.269856 -106.202431 108 21184ft 370kts
31-Jul-18 17:54 39.257889 -106.083489 78 20947ft 356kts
31-Jul-18 17:55 39.272723 -105.961767 76 20124ft 347kts
31-Jul-18 17:56 39.289373 -105.840139 75 19385ft 343kts
31-Jul-18 17:57 39.306092 -105.720228 75 18649ft 340kts
31-Jul-18 17:58 39.339200 -105.610627 57 17912ft 329kts
31-Jul-18 17:59 39.382352 -105.511014 56 17216ft 324kts
31-Jul-18 18:00 39.399483 -105.398819 84 16397ft 328kts
31-Jul-18 18:01 39.404053 -105.283384 84 15216ft 324kts
31-Jul-18 18:02 39.409046 -105.170616 84 14039ft 318kts
31-Jul-18 18:03 39.413918 -105.060227 84 13051ft 304kts
31-Jul-18 18:04 39.418080 -104.963816 84 13036ft 252kts
31-Jul-18 18:05 39.425550 -104.870713 82 12046ft 245kts
31-Jul-18 18:06 39.431955 -104.797610 81 11063ft 244kts
31-Jul-18 18:07 39.456874 -104.703283 42 11032ft 245kts
31-Jul-18 18:08 39.516623 -104.671306 16 11022ft 206kts
31-Jul-18 18:09 39.562383 -104.664366 2 10042ft 184kts
31-Jul-18 18:10 39.622537 -104.663078 1 9117ft 197kts
31-Jul-18 18:11 39.672953 -104.662425 1 8442ft 184kts
31-Jul-18 18:12 39.715133 -104.661923 1 7655ft 180kts
31-Jul-18 18:13 39.768271 -104.661321 2 6633ft 140kts
31-Jul-18 18:14 39.797050 -104.660972 3 6084ft 116kts
31-Jul-18 18:15 39.827555 -104.660585 3 5501ft 108kts
31-Jul-18 18:16 39.840720 -104.661436 208 5437ft 12kts
31-Jul-18 18:17 39.840135 -104.663289 252 5437ft 15kts
31-Jul-18 18:18 39.839352 -104.664537 255 5437ft 8kts
31-Jul-18 18:19 39.839215 -104.664818 77 5437ft 0kts
31-Jul-18 18:20 39.839215 -104.664818 77 5437ft 0kts
31-Jul-18 18:21 39.839215 -104.664818 77 5437ft 0kts
31-Jul-18 18:22 39.839215 -104.664818 77 5437ft 0kts
31-Jul-18 18:23 39.839215 -104.664818 77 5437ft 0kts
31-Jul-18 18:24 39.839215 -104.664818 77 5437ft 0kts
31-Jul-18 18:25 39.839215 -104.664818 77 5437ft 0kts
31-Jul-18 18:26 39.839215 -104.664818 77 5437ft 0kts
31-Jul-18 18:27 39.839215 -104.664818 77 5437ft 0kts
31-Jul-18 18:28 39.839215 -104.664818 77 5437ft 0kts
31-Jul-18 18:29 39.839215 -104.664818 77 5437ft 0kts
31-Jul-18 18:30 39.839215 -104.664818 77 5437ft 0kts

Navigation Log

Ident Type
Flight plan parsing failed, navigation log unavailable